createdAt,value
2022-08-06T00:01:41.466Z,24.3
2022-08-06T00:03:25.151Z,24.3
2022-08-06T00:05:09.110Z,24.2
2022-08-06T00:06:52.581Z,24.2
2022-08-06T00:08:36.270Z,24.1
2022-08-06T00:10:19.955Z,24.2
2022-08-06T00:12:03.656Z,24.2
2022-08-06T00:13:47.364Z,24.2
2022-08-06T00:15:31.088Z,24.2
2022-08-06T00:17:14.767Z,24.2
2022-08-06T00:18:58.477Z,24.1
2022-08-06T00:20:42.203Z,24.1
2022-08-06T00:22:25.898Z,24.1
2022-08-06T00:24:09.584Z,24.2
2022-08-06T00:25:53.284Z,24.2
2022-08-06T00:27:36.977Z,24.2
2022-08-06T00:29:20.691Z,24.1
2022-08-06T00:31:04.400Z,24.1
2022-08-06T00:32:48.160Z,24.1
2022-08-06T00:34:31.835Z,24.1
2022-08-06T00:36:15.498Z,24.2
2022-08-06T00:37:59.195Z,24.2
2022-08-06T00:39:42.994Z,24.2
2022-08-06T00:41:26.604Z,24.2
2022-08-06T00:43:10.303Z,24.1
2022-08-06T00:44:54.005Z,24.1
2022-08-06T00:46:37.717Z,24.1
2022-08-06T00:48:21.412Z,24.1
2022-08-06T00:50:05.110Z,24.1
2022-08-06T00:51:48.805Z,24.2
2022-08-06T00:53:32.557Z,24.2
2022-08-06T00:55:16.240Z,24.2
2022-08-06T00:56:59.969Z,24.2
2022-08-06T00:58:43.697Z,24.2
2022-08-06T01:00:27.410Z,24.1
2022-08-06T01:02:11.027Z,24.1
2022-08-06T01:03:54.743Z,24.1
2022-08-06T01:05:38.435Z,24.1
2022-08-06T01:07:22.139Z,24.1
2022-08-06T01:09:05.876Z,24
2022-08-06T01:10:49.564Z,24
2022-08-06T01:12:33.256Z,24
2022-08-06T01:14:16.940Z,24
2022-08-06T01:16:00.657Z,24
2022-08-06T01:17:44.359Z,24
2022-08-06T01:19:28.063Z,24
2022-08-06T01:21:11.848Z,24
2022-08-06T01:22:55.480Z,24
2022-08-06T01:24:39.171Z,23.9
2022-08-06T01:26:22.858Z,23.9
2022-08-06T01:28:06.584Z,24
2022-08-06T01:29:50.289Z,23.9
2022-08-06T01:31:33.976Z,23.9
2022-08-06T01:33:17.689Z,23.9
2022-08-06T01:35:01.394Z,23.9
2022-08-06T01:36:45.080Z,23.9
2022-08-06T01:38:28.796Z,24
2022-08-06T01:40:12.495Z,23.9
2022-08-06T01:41:56.178Z,23.9
2022-08-06T01:43:39.885Z,23.9
2022-08-06T01:45:23.598Z,23.9
2022-08-06T01:47:07.307Z,23.9
2022-08-06T01:48:50.991Z,23.9
2022-08-06T01:50:34.704Z,24
2022-08-06T01:52:18.405Z,24
2022-08-06T01:54:02.096Z,23.9
2022-08-06T01:55:45.792Z,23.9
2022-08-06T01:57:32.551Z,23.9
2022-08-06T01:59:13.217Z,23.9
2022-08-06T02:00:56.894Z,23.9
2022-08-06T02:04:24.324Z,23.9
2022-08-06T02:06:08.022Z,23.9
2022-08-06T02:07:51.695Z,23.9
2022-08-06T02:09:35.400Z,23.8
2022-08-06T02:11:19.119Z,23.8
2022-08-06T02:13:02.827Z,23.8
2022-08-06T02:14:46.497Z,23.8
2022-08-06T02:16:30.237Z,23.9
2022-08-06T02:18:13.915Z,23.8
2022-08-06T02:19:57.605Z,23.9
2022-08-06T02:21:41.304Z,23.9
2022-08-06T02:23:25.019Z,23.9
2022-08-06T02:25:08.717Z,23.8
2022-08-06T02:26:52.441Z,23.8
2022-08-06T02:28:36.101Z,23.8
2022-08-06T02:30:19.805Z,23.8
2022-08-06T02:32:03.538Z,23.8
2022-08-06T02:33:47.211Z,23.8
2022-08-06T02:35:30.897Z,23.9
2022-08-06T02:37:14.607Z,23.8
2022-08-06T02:38:58.314Z,23.8
2022-08-06T02:40:42.023Z,23.8
2022-08-06T02:42:25.707Z,23.8
2022-08-06T02:44:09.416Z,23.8
2022-08-06T02:45:53.120Z,23.8
2022-08-06T02:47:36.823Z,23.7
2022-08-06T02:49:20.512Z,23.7
2022-08-06T02:51:04.217Z,23.7
2022-08-06T02:52:47.931Z,23.7
2022-08-06T02:54:31.632Z,23.7
2022-08-06T02:56:15.305Z,23.7
2022-08-06T02:57:59.015Z,23.6
2022-08-06T02:59:42.714Z,23.6
2022-08-06T03:01:26.415Z,23.6
2022-08-06T03:03:10.110Z,23.6
2022-08-06T03:04:53.807Z,23.6
2022-08-06T03:06:37.508Z,23.6
2022-08-06T03:08:21.217Z,23.6
2022-08-06T03:10:04.930Z,23.6
2022-08-06T03:11:48.619Z,23.6
2022-08-06T03:13:32.322Z,23.6
2022-08-06T03:15:16.023Z,23.6
2022-08-06T03:16:59.720Z,23.7
2022-08-06T03:18:43.441Z,23.6
2022-08-06T03:20:27.119Z,23.6
2022-08-06T03:22:10.838Z,23.6
2022-08-06T03:23:54.518Z,23.6
2022-08-06T03:25:38.221Z,23.6
2022-08-06T03:27:21.943Z,23.6
2022-08-06T03:29:05.633Z,23.6
2022-08-06T03:30:49.315Z,23.6
2022-08-06T03:32:33.016Z,23.6
2022-08-06T03:34:16.737Z,23.6
2022-08-06T03:36:00.441Z,23.6
2022-08-06T03:37:44.132Z,23.6
2022-08-06T03:39:27.824Z,23.6
2022-08-06T03:41:11.546Z,23.6
2022-08-06T03:42:55.235Z,23.6
2022-08-06T03:44:38.935Z,23.6
2022-08-06T03:46:22.644Z,23.5
2022-08-06T03:48:06.348Z,23.6
2022-08-06T03:49:50.044Z,23.6
2022-08-06T03:51:33.751Z,23.6
2022-08-06T03:53:17.442Z,23.6
2022-08-06T03:55:01.147Z,23.5
2022-08-06T03:56:44.858Z,23.5
2022-08-06T03:58:28.543Z,23.5
2022-08-06T04:00:12.257Z,23.5
2022-08-06T04:01:55.952Z,23.5
2022-08-06T04:03:39.668Z,23.5
2022-08-06T04:05:23.383Z,23.4
2022-08-06T04:07:07.057Z,23.4
2022-08-06T04:08:50.785Z,23.4
2022-08-06T04:10:34.475Z,23.4
2022-08-06T04:12:18.176Z,23.5
2022-08-06T04:14:01.885Z,23.5
2022-08-06T04:15:45.589Z,23.5
2022-08-06T04:17:29.282Z,23.5
2022-08-06T04:19:12.978Z,23.5
2022-08-06T04:20:56.669Z,23.5
2022-08-06T04:22:40.380Z,23.5
2022-08-06T04:24:24.096Z,23.5
2022-08-06T04:26:07.788Z,23.4
2022-08-06T04:27:51.481Z,23.4
2022-08-06T04:29:35.208Z,23.4
2022-08-06T04:31:18.890Z,23.4
2022-08-06T04:33:02.589Z,23.4
2022-08-06T04:34:46.271Z,23.4
2022-08-06T04:36:29.982Z,23.4
2022-08-06T04:38:13.696Z,23.4
2022-08-06T04:39:57.397Z,23.3
2022-08-06T04:41:41.090Z,23.3
2022-08-06T04:43:24.783Z,23.3
2022-08-06T04:45:08.483Z,23.3
2022-08-06T04:46:52.212Z,23.3
2022-08-06T04:48:35.859Z,23.4
2022-08-06T04:50:19.571Z,23.4
2022-08-06T04:52:03.284Z,23.4
2022-08-06T04:53:46.986Z,23.4
2022-08-06T04:55:30.668Z,23.4
2022-08-06T04:57:14.368Z,23.5
2022-08-06T04:58:58.090Z,23.5
2022-08-06T05:00:41.785Z,23.3
2022-08-06T05:02:25.485Z,23.3
2022-08-06T05:04:09.181Z,23.3
2022-08-06T05:05:52.882Z,23.2
2022-08-06T05:07:36.597Z,23.1
2022-08-06T05:09:20.299Z,23.1
2022-08-06T05:11:03.984Z,23
2022-08-06T05:12:47.686Z,23
2022-08-06T05:14:31.399Z,22.9
2022-08-06T05:16:15.089Z,22.7
2022-08-06T05:17:58.791Z,22.8
2022-08-06T05:19:42.501Z,22.8
2022-08-06T05:21:26.192Z,22.8
2022-08-06T05:23:09.908Z,22.8
2022-08-06T05:24:53.602Z,22.8
2022-08-06T05:26:37.314Z,22.8
2022-08-06T05:28:21.025Z,22.8
2022-08-06T05:30:04.709Z,22.8
2022-08-06T05:31:48.407Z,22.9
2022-08-06T05:33:32.125Z,23
2022-08-06T05:35:15.818Z,23
2022-08-06T05:36:59.520Z,22.9
2022-08-06T05:38:43.206Z,23
2022-08-06T05:40:26.906Z,23
2022-08-06T05:42:10.616Z,23.1
2022-08-06T05:43:54.331Z,23.2
2022-08-06T05:45:38.007Z,23.2
2022-08-06T05:47:21.697Z,23.3
2022-08-06T05:49:05.415Z,23.4
2022-08-06T05:50:49.111Z,23.4
2022-08-06T05:52:32.830Z,23.4
2022-08-06T05:54:16.536Z,23.5
2022-08-06T05:56:00.222Z,23.5
2022-08-06T05:57:43.925Z,23.5
2022-08-06T05:59:27.865Z,23.4
2022-08-06T06:01:11.325Z,23.4
2022-08-06T06:02:55.035Z,23.4
2022-08-06T06:04:38.742Z,23.4
2022-08-06T06:06:22.421Z,23.3
2022-08-06T06:08:06.143Z,23.4
2022-08-06T06:09:49.829Z,23.3
2022-08-06T06:11:33.533Z,23.4
2022-08-06T06:13:17.269Z,23.4
2022-08-06T06:15:00.949Z,23.5
2022-08-06T06:16:44.639Z,23.6
2022-08-06T06:18:28.342Z,23.7
2022-08-06T06:20:12.059Z,23.7
2022-08-06T06:21:55.753Z,23.8
2022-08-06T06:23:39.491Z,23.8
2022-08-06T06:25:23.167Z,23.7
2022-08-06T06:27:06.870Z,23.8
2022-08-06T06:28:50.560Z,23.8
2022-08-06T06:30:34.256Z,23.8
2022-08-06T06:32:17.975Z,23.8
2022-08-06T06:34:01.673Z,23.7
2022-08-06T06:35:45.376Z,23.7
2022-08-06T06:37:29.121Z,23.7
2022-08-06T06:39:12.771Z,23.7
2022-08-06T06:40:56.473Z,23.8
2022-08-06T06:42:40.180Z,23.8
2022-08-06T06:44:23.873Z,23.9
2022-08-06T06:46:07.595Z,24
2022-08-06T06:47:51.293Z,24.1
2022-08-06T06:49:34.978Z,24.2
2022-08-06T06:51:18.690Z,24.3
2022-08-06T06:53:02.400Z,24.4
2022-08-06T06:54:46.084Z,24.5
2022-08-06T06:56:29.806Z,24.5
2022-08-06T06:58:13.484Z,24.4
2022-08-06T06:59:57.205Z,24.5
2022-08-06T07:01:40.902Z,24.5
2022-08-06T07:03:24.599Z,24.5
2022-08-06T07:05:08.306Z,24.6
2022-08-06T07:06:52.007Z,24.7
2022-08-06T07:08:35.720Z,24.7
2022-08-06T07:10:19.385Z,24.8
2022-08-06T07:12:03.101Z,24.7
2022-08-06T07:13:46.814Z,24.6
2022-08-06T07:15:30.500Z,24.6
2022-08-06T07:17:14.193Z,24.5
2022-08-06T07:18:57.934Z,24.5
2022-08-06T07:20:41.602Z,24.6
2022-08-06T07:22:25.338Z,24.6
2022-08-06T07:24:09.026Z,24.7
2022-08-06T07:25:52.729Z,24.7
2022-08-06T07:27:36.435Z,24.7
2022-08-06T07:29:20.122Z,24.7
2022-08-06T07:31:03.880Z,24.7
2022-08-06T07:32:47.524Z,24.8
2022-08-06T07:34:31.238Z,25
2022-08-06T07:36:14.922Z,25
2022-08-06T07:37:58.635Z,25.2
2022-08-06T07:39:42.334Z,25.3
2022-08-06T07:41:26.046Z,25.3
2022-08-06T07:43:09.765Z,25.4
2022-08-06T07:44:53.440Z,25.4
2022-08-06T07:46:37.148Z,25.5
2022-08-06T07:48:20.853Z,25.5
2022-08-06T07:50:04.532Z,25.6
2022-08-06T07:51:48.231Z,25.6
2022-08-06T07:53:31.939Z,25.7
2022-08-06T07:55:15.640Z,25.8
2022-08-06T07:56:59.328Z,25.8
2022-08-06T07:58:43.047Z,25.8
2022-08-06T08:00:26.754Z,25.8
2022-08-06T08:02:10.467Z,25.9
2022-08-06T08:03:54.143Z,26
2022-08-06T08:05:37.858Z,25.9
2022-08-06T08:07:21.556Z,25.9
2022-08-06T08:09:05.245Z,25.9
2022-08-06T08:10:48.967Z,25.9
2022-08-06T08:12:32.659Z,25.9
2022-08-06T08:14:16.375Z,25.9
2022-08-06T08:16:00.078Z,25.8
2022-08-06T08:17:43.756Z,25.8
2022-08-06T08:19:27.465Z,25.8
2022-08-06T08:21:11.168Z,25.8
2022-08-06T08:22:54.863Z,25.8
2022-08-06T08:24:38.573Z,25.8
2022-08-06T08:26:22.272Z,25.8
2022-08-06T08:28:05.975Z,25.8
2022-08-06T08:29:49.669Z,25.7
2022-08-06T08:31:33.367Z,25.8
2022-08-06T08:33:17.077Z,25.8
2022-08-06T08:35:00.789Z,25.8
2022-08-06T08:36:44.473Z,25.9
2022-08-06T08:38:28.174Z,25.9
2022-08-06T08:40:11.911Z,25.9
2022-08-06T08:41:55.584Z,26
2022-08-06T08:43:39.288Z,25.9
2022-08-06T08:45:22.980Z,25.9
2022-08-06T08:47:06.680Z,25.9
2022-08-06T08:48:50.410Z,25.8
2022-08-06T08:50:34.084Z,25.8
2022-08-06T08:52:17.815Z,25.8
2022-08-06T08:54:01.503Z,25.8
2022-08-06T08:55:45.216Z,25.8
2022-08-06T08:57:28.913Z,25.9
2022-08-06T08:59:12.605Z,25.9
2022-08-06T09:00:56.318Z,25.8
2022-08-06T09:02:40.018Z,25.8
2022-08-06T09:04:23.717Z,25.9
2022-08-06T09:06:07.433Z,26
2022-08-06T09:07:51.142Z,26
2022-08-06T09:09:34.826Z,26.1
2022-08-06T09:11:18.534Z,26.1
2022-08-06T09:13:02.219Z,26.2
2022-08-06T09:14:45.937Z,26.2
2022-08-06T09:16:29.627Z,26.2
2022-08-06T09:18:13.330Z,26.3
2022-08-06T09:19:57.037Z,26.3
2022-08-06T09:21:40.754Z,26.3
2022-08-06T09:23:24.422Z,26.3
2022-08-06T09:25:08.128Z,26.4
2022-08-06T09:26:51.854Z,26.4
2022-08-06T09:28:35.549Z,26.5
2022-08-06T09:30:19.235Z,26.5
2022-08-06T09:32:02.935Z,26.5
2022-08-06T09:33:46.633Z,26.5
2022-08-06T09:35:30.359Z,26.5
2022-08-06T09:37:14.060Z,26.6
2022-08-06T09:38:57.771Z,26.6
2022-08-06T09:40:41.467Z,26.6
2022-08-06T09:42:25.393Z,26.6
2022-08-06T09:44:08.860Z,26.6
2022-08-06T09:45:52.561Z,26.6
2022-08-06T09:47:36.266Z,26.6
2022-08-06T09:49:19.949Z,26.6
2022-08-06T09:51:03.654Z,26.5
2022-08-06T09:52:47.371Z,26.5
2022-08-06T09:54:31.099Z,26.5
2022-08-06T09:56:14.767Z,26.5
2022-08-06T09:57:58.467Z,26.5
2022-08-06T09:59:42.249Z,26.5
2022-08-06T10:01:25.869Z,26.5
2022-08-06T10:03:09.575Z,26.5
2022-08-06T10:04:53.281Z,26.5
2022-08-06T10:06:36.974Z,26.5
2022-08-06T10:08:20.679Z,26.5
2022-08-06T10:10:04.404Z,26.5
2022-08-06T10:11:48.084Z,26.4
2022-08-06T10:13:31.797Z,26.4
2022-08-06T10:15:15.477Z,26.4
2022-08-06T10:16:59.194Z,26.4
2022-08-06T10:18:42.881Z,26.4
2022-08-06T10:20:26.604Z,26.4
2022-08-06T10:22:10.292Z,26.4
2022-08-06T10:23:53.980Z,26.4
2022-08-06T10:25:37.689Z,26.3
2022-08-06T10:27:21.393Z,26.4
2022-08-06T10:29:05.094Z,26.5
2022-08-06T10:30:48.785Z,26.5
2022-08-06T10:32:32.492Z,26.6
2022-08-06T10:34:16.187Z,26.6
2022-08-06T10:35:59.910Z,26.6
2022-08-06T10:37:43.618Z,26.6
2022-08-06T10:39:27.305Z,26.5
2022-08-06T10:41:10.999Z,26.5
2022-08-06T10:42:54.710Z,26.5
2022-08-06T10:44:38.402Z,26.5
2022-08-06T10:46:22.123Z,26.5
2022-08-06T10:48:05.806Z,26.5
2022-08-06T10:49:49.517Z,26.5
2022-08-06T10:51:33.211Z,26.5
2022-08-06T10:53:16.924Z,26.5
2022-08-06T10:55:00.611Z,26.5
2022-08-06T10:56:44.305Z,26.5
2022-08-06T10:58:28.050Z,26.5
2022-08-06T11:00:11.739Z,26.5
2022-08-06T11:01:55.410Z,26.5
2022-08-06T11:03:39.114Z,26.5
2022-08-06T11:05:22.821Z,26.5
2022-08-06T11:07:06.558Z,26.5
2022-08-06T11:08:50.221Z,26.5
2022-08-06T11:10:33.933Z,26.5
2022-08-06T11:12:17.634Z,26.5
2022-08-06T11:14:01.324Z,26.5
2022-08-06T11:15:45.024Z,26.5
2022-08-06T11:17:28.727Z,26.5
2022-08-06T11:19:12.441Z,26.6
2022-08-06T11:20:56.126Z,26.6
2022-08-06T11:22:39.862Z,26.6
2022-08-06T11:24:23.532Z,26.6
2022-08-06T11:26:07.243Z,26.6
2022-08-06T11:27:50.943Z,26.6
2022-08-06T11:29:34.632Z,26.6
2022-08-06T11:31:18.326Z,26.6
2022-08-06T11:33:02.049Z,26.7
2022-08-06T11:34:45.720Z,26.7
2022-08-06T11:36:29.467Z,26.7
2022-08-06T11:38:13.145Z,26.7
2022-08-06T11:39:56.840Z,26.7
2022-08-06T11:41:40.524Z,26.7
2022-08-06T11:43:24.243Z,26.7
2022-08-06T11:45:07.937Z,26.7
2022-08-06T11:46:51.650Z,26.7
2022-08-06T11:48:35.356Z,26.7
2022-08-06T11:50:19.044Z,26.7
2022-08-06T11:52:02.740Z,26.7
2022-08-06T11:53:46.454Z,26.7
2022-08-06T11:55:30.177Z,26.7
2022-08-06T11:57:13.891Z,26.7
2022-08-06T11:58:57.547Z,26.7
2022-08-06T12:00:41.521Z,26.7
2022-08-06T12:02:24.973Z,26.7
2022-08-06T12:04:08.665Z,26.8
2022-08-06T12:05:52.366Z,26.8
2022-08-06T12:07:36.091Z,26.8
2022-08-06T12:09:19.776Z,26.8
2022-08-06T12:11:03.476Z,26.7
2022-08-06T12:12:47.246Z,26.7
2022-08-06T12:14:30.869Z,26.7
2022-08-06T12:16:15.599Z,26.8
2022-08-06T12:17:58.294Z,26.8
2022-08-06T12:19:41.993Z,26.8
2022-08-06T12:21:25.696Z,26.8
2022-08-06T12:23:09.393Z,26.9
2022-08-06T12:24:53.091Z,26.8
2022-08-06T12:26:36.830Z,26.8
2022-08-06T12:28:20.506Z,26.8
2022-08-06T12:30:04.220Z,26.8
2022-08-06T12:31:47.927Z,26.8
2022-08-06T12:33:31.613Z,26.8
2022-08-06T12:35:15.300Z,26.8
2022-08-06T12:36:59.016Z,26.7
2022-08-06T12:38:42.711Z,26.7
2022-08-06T12:40:26.414Z,26.7
2022-08-06T12:42:10.093Z,26.7
2022-08-06T12:43:53.800Z,26.8
2022-08-06T12:45:37.507Z,26.8
2022-08-06T12:47:21.205Z,26.8
2022-08-06T12:49:04.902Z,26.7
2022-08-06T12:50:48.601Z,26.7
2022-08-06T12:52:32.321Z,26.6
2022-08-06T12:54:16.019Z,26.7
2022-08-06T12:55:59.731Z,26.7
2022-08-06T12:57:43.399Z,26.7
2022-08-06T12:59:27.097Z,26.7
2022-08-06T13:01:10.810Z,26.6
2022-08-06T13:02:54.511Z,26.6
2022-08-06T13:04:38.209Z,26.7
2022-08-06T13:06:21.929Z,26.6
2022-08-06T13:08:05.625Z,26.6
2022-08-06T13:09:49.333Z,26.5
2022-08-06T13:11:33.036Z,26.6
2022-08-06T13:13:16.729Z,26.6
2022-08-06T13:15:00.442Z,26.7
2022-08-06T13:16:44.122Z,26.7
2022-08-06T13:18:27.815Z,26.7
2022-08-06T13:20:11.528Z,26.7
2022-08-06T13:21:55.218Z,26.7
2022-08-06T13:23:38.919Z,26.7
2022-08-06T13:25:22.619Z,26.8
2022-08-06T13:27:06.319Z,26.8
2022-08-06T13:28:50.015Z,26.8
2022-08-06T13:30:33.711Z,26.8
2022-08-06T13:32:17.428Z,26.8
2022-08-06T13:34:01.120Z,26.8
2022-08-06T13:35:44.852Z,26.7
2022-08-06T13:37:28.516Z,26.7
2022-08-06T13:39:12.217Z,26.7
2022-08-06T13:40:55.916Z,26.7
2022-08-06T13:42:39.642Z,26.6
2022-08-06T13:44:23.316Z,26.6
2022-08-06T13:46:07.044Z,26.6
2022-08-06T13:47:50.717Z,26.5
2022-08-06T13:49:34.441Z,26.5
2022-08-06T13:51:18.114Z,26.6
2022-08-06T13:53:01.841Z,26.6
2022-08-06T13:54:45.533Z,26.6
2022-08-06T13:56:29.287Z,26.6
2022-08-06T13:58:12.940Z,26.6
2022-08-06T13:59:56.654Z,26.6
2022-08-06T14:01:40.341Z,26.6
2022-08-06T14:03:24.034Z,26.6
2022-08-06T14:05:07.749Z,26.6
2022-08-06T14:06:51.449Z,26.7
2022-08-06T14:08:35.169Z,26.7
2022-08-06T14:10:18.850Z,26.7
2022-08-06T14:12:02.576Z,26.6
2022-08-06T14:13:46.255Z,26.6
2022-08-06T14:15:29.952Z,26.6
2022-08-06T14:17:13.655Z,26.5
2022-08-06T14:18:57.336Z,26.5
2022-08-06T14:20:41.069Z,26.6
2022-08-06T14:22:24.769Z,26.6
2022-08-06T14:24:08.452Z,26.6
2022-08-06T14:25:52.149Z,26.6
2022-08-06T14:27:35.902Z,26.5
2022-08-06T14:29:19.576Z,26.5
2022-08-06T14:31:03.268Z,26.5
2022-08-06T14:32:46.951Z,26.5
2022-08-06T14:34:30.654Z,26.5
2022-08-06T14:36:14.371Z,26.5
2022-08-06T14:37:58.064Z,26.5
2022-08-06T14:39:41.739Z,26.5
2022-08-06T14:41:25.458Z,26.5
2022-08-06T14:43:09.167Z,26.5
2022-08-06T14:44:52.850Z,26.5
2022-08-06T14:46:36.561Z,26.5
2022-08-06T14:48:20.263Z,26.5
2022-08-06T14:50:03.970Z,26.5
2022-08-06T14:51:47.653Z,26.5
2022-08-06T14:53:31.371Z,26.5
2022-08-06T14:55:15.064Z,26.5
2022-08-06T14:56:58.758Z,26.5
2022-08-06T14:58:42.468Z,26.4
2022-08-06T15:00:26.169Z,26.4
2022-08-06T15:02:09.899Z,26.4
2022-08-06T15:03:53.576Z,26.4
2022-08-06T15:05:37.769Z,26.4
2022-08-06T15:07:20.985Z,26.4
2022-08-06T15:09:04.690Z,26.4
2022-08-06T15:10:48.386Z,26.4
2022-08-06T15:12:32.084Z,26.5
2022-08-06T15:14:15.823Z,26.5
2022-08-06T15:15:59.522Z,26.5
2022-08-06T15:17:43.189Z,26.5
2022-08-06T15:19:27.930Z,26.5
2022-08-06T15:21:10.605Z,26.6
2022-08-06T15:22:54.317Z,26.6
2022-08-06T15:24:38.014Z,26.6
2022-08-06T15:26:21.713Z,26.6
2022-08-06T15:28:05.418Z,26.6
2022-08-06T15:29:49.132Z,26.6
2022-08-06T15:31:32.807Z,26.6
2022-08-06T15:33:16.523Z,26.6
2022-08-06T15:35:00.213Z,26.6
2022-08-06T15:36:43.950Z,26.6
2022-08-06T15:38:27.661Z,26.6
2022-08-06T15:40:11.336Z,26.6
2022-08-06T15:41:55.038Z,26.6
2022-08-06T15:43:38.741Z,26.6
2022-08-06T15:45:22.431Z,26.5
2022-08-06T15:47:06.132Z,26.5
2022-08-06T15:48:49.853Z,26.5
2022-08-06T15:50:33.578Z,26.5
2022-08-06T15:52:17.242Z,26.5
2022-08-06T15:54:00.966Z,26.5
2022-08-06T15:55:44.660Z,26.5
2022-08-06T15:57:28.352Z,26.5
2022-08-06T15:59:12.061Z,26.4
2022-08-06T16:00:55.752Z,26.4
2022-08-06T16:02:39.458Z,26.4
2022-08-06T16:04:23.156Z,26.4
2022-08-06T16:06:06.865Z,26.4
2022-08-06T16:07:50.569Z,26.4
2022-08-06T16:09:34.273Z,26.4
2022-08-06T16:11:17.965Z,26.4
2022-08-06T16:13:01.664Z,26.4
2022-08-06T16:14:45.351Z,26.4
2022-08-06T16:16:29.055Z,26.4
2022-08-06T16:18:12.764Z,26.4
2022-08-06T16:19:56.469Z,26.4
2022-08-06T16:21:40.171Z,26.4
2022-08-06T16:23:23.858Z,26.4
2022-08-06T16:25:07.571Z,26.4
2022-08-06T16:26:51.294Z,26.4
2022-08-06T16:28:34.974Z,26.4
2022-08-06T16:30:18.676Z,26.4
2022-08-06T16:32:02.398Z,26.4
2022-08-06T16:33:46.083Z,26.4
2022-08-06T16:35:29.771Z,26.4
2022-08-06T16:37:13.481Z,26.4
2022-08-06T16:38:57.178Z,26.4
2022-08-06T16:40:40.863Z,26.4
2022-08-06T16:42:24.579Z,26.4
2022-08-06T16:44:08.275Z,26.4
2022-08-06T16:45:51.986Z,26.4
2022-08-06T16:47:35.680Z,26.4
2022-08-06T16:49:19.374Z,26.4
2022-08-06T16:51:03.085Z,26.4
2022-08-06T16:52:46.784Z,26.4
2022-08-06T16:54:30.496Z,26.4
2022-08-06T16:56:14.187Z,26.4
2022-08-06T16:57:57.893Z,26.4
2022-08-06T16:59:41.614Z,26.4
2022-08-06T17:01:25.283Z,26.4
2022-08-06T17:03:08.989Z,26.3
2022-08-06T17:04:52.698Z,26.3
2022-08-06T17:06:36.383Z,26.3
2022-08-06T17:08:20.112Z,26.3
2022-08-06T17:10:03.820Z,26.3
2022-08-06T17:11:47.513Z,26.3
2022-08-06T17:13:31.217Z,26.3
2022-08-06T17:15:14.934Z,26.3
2022-08-06T17:16:58.651Z,26.3
2022-08-06T17:18:42.338Z,26.3
2022-08-06T17:20:26.031Z,26.3
2022-08-06T17:22:09.757Z,26.3
2022-08-06T17:23:53.430Z,26.3
2022-08-06T17:25:37.119Z,26.3
2022-08-06T17:27:20.804Z,26.3
2022-08-06T17:29:04.514Z,26.2
2022-08-06T17:30:48.228Z,26.2
2022-08-06T17:32:31.947Z,26.2
2022-08-06T17:34:15.605Z,26.2
2022-08-06T17:35:59.329Z,26.2
2022-08-06T17:37:43.047Z,26.2
2022-08-06T17:39:26.741Z,26.2
2022-08-06T17:41:10.412Z,26.2
2022-08-06T17:42:54.166Z,26.2
2022-08-06T17:44:37.827Z,26.2
2022-08-06T17:46:21.531Z,26.2
2022-08-06T17:48:05.218Z,26.2
2022-08-06T17:49:48.919Z,26.2
2022-08-06T17:51:32.617Z,26.2
2022-08-06T17:53:16.340Z,26.2
2022-08-06T17:55:00.038Z,26.2
2022-08-06T17:56:43.742Z,26.1
2022-08-06T17:58:27.422Z,26.1
2022-08-06T18:00:11.129Z,26.1
2022-08-06T18:01:54.836Z,26.1
2022-08-06T18:03:38.533Z,26.1
2022-08-06T18:05:22.239Z,26.1
2022-08-06T18:07:05.963Z,26.1
2022-08-06T18:08:49.647Z,26.1
2022-08-06T18:10:33.350Z,26.1
2022-08-06T18:12:17.043Z,26.1
2022-08-06T18:14:00.751Z,26.1
2022-08-06T18:15:44.466Z,26
2022-08-06T18:17:28.195Z,26
2022-08-06T18:19:11.867Z,26
2022-08-06T18:20:55.578Z,26
2022-08-06T18:22:39.256Z,26
2022-08-06T18:24:22.975Z,26
2022-08-06T18:26:06.676Z,26
2022-08-06T18:29:34.075Z,26
2022-08-06T18:31:17.799Z,26
2022-08-06T18:33:01.480Z,26
2022-08-06T18:34:45.180Z,26
2022-08-06T18:36:28.890Z,26
2022-08-06T18:38:12.605Z,25.9
2022-08-06T18:39:56.291Z,25.9
2022-08-06T18:41:40.034Z,25.9
2022-08-06T18:43:23.702Z,25.9
2022-08-06T18:45:07.401Z,25.9
2022-08-06T18:46:51.099Z,25.9
2022-08-06T18:48:34.808Z,25.9
2022-08-06T18:50:18.507Z,25.9
2022-08-06T18:52:02.205Z,25.9
2022-08-06T18:53:45.914Z,25.9
2022-08-06T18:55:29.601Z,25.9
2022-08-06T18:57:13.338Z,25.8
2022-08-06T18:58:57.038Z,25.8
2022-08-06T19:00:40.750Z,25.8
2022-08-06T19:02:24.424Z,25.8
2022-08-06T19:04:08.140Z,25.8
2022-08-06T19:05:51.854Z,25.8
2022-08-06T19:07:35.537Z,25.8
2022-08-06T19:09:19.227Z,25.8
2022-08-06T19:11:02.941Z,25.8
2022-08-06T19:12:46.663Z,25.8
2022-08-06T19:14:30.359Z,25.7
2022-08-06T19:16:14.053Z,25.7
2022-08-06T19:17:57.736Z,25.7
2022-08-06T19:19:41.449Z,25.7
2022-08-06T19:21:25.161Z,25.7
2022-08-06T19:23:08.842Z,25.7
2022-08-06T19:24:52.527Z,25.7
2022-08-06T19:26:36.271Z,25.7
2022-08-06T19:28:19.956Z,25.6
2022-08-06T19:30:03.647Z,25.6
2022-08-06T19:31:47.344Z,25.6
2022-08-06T19:33:31.056Z,25.6
2022-08-06T19:35:14.775Z,25.6
2022-08-06T19:36:58.458Z,25.6
